Time,TemperatureF,DewpointF,PressureIn,WindDirection,WindDirectionDegrees,WindSpeedMPH,WindSpeedGustMPH,Humidity,HourlyPrecipIn,Conditions,Clouds,dailyrainin,SoftwareType,DateUTC
2018-01-20 00:09:00,37.0,-99.9,30.03,SW,226,6.0,9.0,-999,-99.99,,,-99.99,,2018-01-20 05:09:00,
2018-01-20 00:40:00,37.0,-99.9,30.03,SW,222,-999.9,-999.0,-999,-99.99,,,-99.99,,2018-01-20 05:40:00,
2018-01-20 01:09:00,38.0,-99.9,30.02,SW,230,7.0,10.0,-999,-99.99,,,-99.99,,2018-01-20 06:09:00,
2018-01-20 01:39:00,38.0,-99.9,30.01,SW,234,8.0,13.0,-999,-99.99,,,-99.99,,2018-01-20 06:39:00,
2018-01-20 02:09:00,38.0,-99.9,30.00,WSW,237,9.0,11.0,-999,-99.99,,,-99.99,,2018-01-20 07:09:00,
2018-01-20 02:39:00,38.0,-99.9,29.99,SW,236,8.0,10.0,-999,-99.99,,,-99.99,,2018-01-20 07:39:00,
2018-01-20 03:09:00,37.0,-99.9,29.98,SW,227,7.0,14.0,-999,-99.99,,,-99.99,,2018-01-20 08:09:00,
2018-01-20 03:40:00,37.0,-99.9,29.99,SW,235,9.0,15.0,-999,-99.99,,,-99.99,,2018-01-20 08:40:00,
2018-01-20 04:09:00,37.0,-99.9,29.98,WSW,239,8.0,12.0,-999,-99.99,,,-99.99,,2018-01-20 09:09:00,
2018-01-20 04:39:00,36.0,-99.9,29.99,WSW,243,6.0,9.0,-999,-99.99,,,-99.99,,2018-01-20 09:39:00,
2018-01-20 05:39:00,35.0,-99.9,29.98,SW,228,9.0,13.0,-999,-99.99,,,-99.99,,2018-01-20 10:39:00,
2018-01-20 06:09:00,35.0,-99.9,29.99,SW,235,8.0,12.0,-999,-99.99,,,-99.99,,2018-01-20 11:09:00,
2018-01-20 06:39:00,35.0,-99.9,29.99,SW,221,8.0,13.0,-999,-99.99,,,-99.99,,2018-01-20 11:39:00,
2018-01-20 07:09:00,35.0,-99.9,30.00,SW,233,8.0,11.0,-999,-99.99,,,-99.99,,2018-01-20 12:09:00,
2018-01-20 07:39:00,35.0,-99.9,30.00,SW,229,8.0,12.0,-999,-99.99,,,-99.99,,2018-01-20 12:39:00,
2018-01-20 08:08:00,35.0,-99.9,30.00,SW,234,8.0,11.0,-999,-99.99,,,-99.99,,2018-01-20 13:08:00,
2018-01-20 08:39:00,36.0,-99.9,30.01,SW,236,6.0,10.0,-999,-99.99,,,-99.99,,2018-01-20 13:39:00,
2018-01-20 09:08:00,39.0,-99.9,30.02,WSW,239,4.0,8.0,-999,-99.99,,,-99.99,,2018-01-20 14:08:00,
2018-01-20 09:39:00,41.0,-99.9,30.02,WSW,253,6.0,9.0,-999,-99.99,,,-99.99,,2018-01-20 14:39:00,
2018-01-20 10:09:00,43.0,-99.9,30.02,West,279,9.0,13.0,-999,-99.99,,,-99.99,,2018-01-20 15:09:00,
2018-01-20 10:39:00,44.0,-99.9,30.03,West,279,9.0,11.0,-999,-99.99,,,-99.99,,2018-01-20 15:39:00,
2018-01-20 11:09:00,47.0,-99.9,30.02,West,277,9.0,13.0,-999,-99.99,,,-99.99,,2018-01-20 16:09:00,
2018-01-20 11:39:00,48.0,-99.9,30.01,West,266,7.0,9.0,-999,-99.99,,,-99.99,,2018-01-20 16:39:00,
2018-01-20 12:10:00,51.0,-99.9,29.99,West,261,8.0,10.0,-999,-99.99,,,-99.99,,2018-01-20 17:10:00,
2018-01-20 12:39:00,53.0,-99.9,29.98,SW,236,3.0,-999.0,-999,-99.99,,,-99.99,,2018-01-20 17:39:00,
2018-01-20 13:09:00,55.0,-99.9,29.96,WSW,250,9.0,12.0,-999,-99.99,,,-99.99,,2018-01-20 18:09:00,
2018-01-20 13:39:00,55.0,-99.9,29.95,WNW,283,11.0,16.0,-999,-99.99,,,-99.99,,2018-01-20 18:39:00,
2018-01-20 14:09:00,54.0,-99.9,29.94,WNW,291,14.0,16.0,-999,-99.99,,,-99.99,,2018-01-20 19:09:00,
2018-01-20 14:39:00,53.0,-99.9,29.95,WNW,301,17.0,20.0,-999,-99.99,,,-99.99,,2018-01-20 19:39:00,
2018-01-20 15:09:00,56.0,-99.9,29.95,WNW,291,12.0,14.0,-999,-99.99,,,-99.99,,2018-01-20 20:09:00,
2018-01-20 15:39:00,57.0,-99.9,29.95,West,271,9.0,12.0,-999,-99.99,,,-99.99,,2018-01-20 20:39:00,
2018-01-20 16:09:00,56.0,-99.9,29.96,West,279,11.0,13.0,-999,-99.99,,,-99.99,,2018-01-20 21:09:00,
2018-01-20 16:39:00,56.0,-99.9,29.97,West,273,10.0,16.0,-999,-99.99,,,-99.99,,2018-01-20 21:39:00,
2018-01-20 17:09:00,55.0,-99.9,29.98,West,269,7.0,10.0,-999,-99.99,,,-99.99,,2018-01-20 22:09:00,
2018-01-20 17:39:00,53.0,-99.9,30.00,WSW,252,6.0,7.0,-999,-99.99,,,-99.99,,2018-01-20 22:39:00,
2018-01-20 18:09:00,51.0,-99.9,30.01,WSW,239,6.0,9.0,-999,-99.99,,,-99.99,,2018-01-20 23:09:00,